sensor_id;sensor_type;location;lat;lon;timestamp;P1;durP1;ratioP1;P2;durP2;ratioP2
20318;SDS011;10317;47.254;11.314;2022-08-18T00:02:24;6.97;;;5.30;;
20318;SDS011;10317;47.254;11.314;2022-08-18T00:04:52;6.57;;;5.57;;
20318;SDS011;10317;47.254;11.314;2022-08-18T00:07:23;6.72;;;6.13;;
20318;SDS011;10317;47.254;11.314;2022-08-18T00:09:51;8.45;;;6.50;;
20318;SDS011;10317;47.254;11.314;2022-08-18T00:12:18;7.47;;;6.28;;
20318;SDS011;10317;47.254;11.314;2022-08-18T00:14:47;8.50;;;5.97;;
20318;SDS011;10317;47.254;11.314;2022-08-18T00:17:13;9.02;;;6.75;;
20318;SDS011;10317;47.254;11.314;2022-08-18T00:19:40;8.13;;;6.63;;
20318;SDS011;10317;47.254;11.314;2022-08-18T00:22:06;7.38;;;5.82;;
20318;SDS011;10317;47.254;11.314;2022-08-18T00:24:32;12.65;;;6.90;;
20318;SDS011;10317;47.254;11.314;2022-08-18T00:26:58;6.28;;;5.68;;
20318;SDS011;10317;47.254;11.314;2022-08-18T00:29:23;6.57;;;5.93;;
20318;SDS011;10317;47.254;11.314;2022-08-18T00:31:49;6.88;;;5.97;;
20318;SDS011;10317;47.254;11.314;2022-08-18T00:34:15;7.93;;;6.68;;
20318;SDS011;10317;47.254;11.314;2022-08-18T00:36:41;7.03;;;5.80;;
20318;SDS011;10317;47.254;11.314;2022-08-18T00:39:07;5.95;;;5.32;;
20318;SDS011;10317;47.254;11.314;2022-08-18T00:41:34;6.00;;;5.43;;
20318;SDS011;10317;47.254;11.314;2022-08-18T00:44:00;6.38;;;5.65;;
20318;SDS011;10317;47.254;11.314;2022-08-18T00:46:27;8.80;;;6.25;;
20318;SDS011;10317;47.254;11.314;2022-08-18T00:48:57;6.53;;;5.78;;
20318;SDS011;10317;47.254;11.314;2022-08-18T00:51:27;7.97;;;5.90;;
20318;SDS011;10317;47.254;11.314;2022-08-18T00:54:04;5.15;;;4.65;;
20318;SDS011;10317;47.254;11.314;2022-08-18T00:56:43;7.05;;;4.97;;
20318;SDS011;10317;47.254;11.314;2022-08-18T00:59:22;6.97;;;6.38;;
20318;SDS011;10317;47.254;11.314;2022-08-18T01:02:10;8.38;;;5.65;;
20318;SDS011;10317;47.254;11.314;2022-08-18T01:04:44;8.15;;;5.20;;
20318;SDS011;10317;47.254;11.314;2022-08-18T01:07:19;5.57;;;4.80;;
20318;SDS011;10317;47.254;11.314;2022-08-18T01:09:49;7.88;;;5.47;;
20318;SDS011;10317;47.254;11.314;2022-08-18T01:12:16;6.40;;;5.20;;
20318;SDS011;10317;47.254;11.314;2022-08-18T01:14:42;5.80;;;4.38;;
20318;SDS011;10317;47.254;11.314;2022-08-18T01:17:09;6.85;;;6.15;;
20318;SDS011;10317;47.254;11.314;2022-08-18T01:19:53;5.82;;;5.00;;
20318;SDS011;10317;47.254;11.314;2022-08-18T01:25:14;5.55;;;5.03;;
20318;SDS011;10317;47.254;11.314;2022-08-18T01:28:01;6.63;;;4.85;;
20318;SDS011;10317;47.254;11.314;2022-08-18T01:30:28;5.25;;;4.82;;
20318;SDS011;10317;47.254;11.314;2022-08-18T01:32:55;8.55;;;5.43;;
20318;SDS011;10317;47.254;11.314;2022-08-18T01:35:23;5.68;;;5.25;;
20318;SDS011;10317;47.254;11.314;2022-08-18T01:37:51;8.23;;;5.95;;
20318;SDS011;10317;47.254;11.314;2022-08-18T01:40:19;8.32;;;5.65;;
20318;SDS011;10317;47.254;11.314;2022-08-18T01:42:46;8.15;;;6.38;;
20318;SDS011;10317;47.254;11.314;2022-08-18T01:45:13;8.70;;;5.70;;
20318;SDS011;10317;47.254;11.314;2022-08-18T01:47:41;8.07;;;6.00;;
20318;SDS011;10317;47.254;11.314;2022-08-18T01:50:07;6.07;;;5.57;;
20318;SDS011;10317;47.254;11.314;2022-08-18T01:52:35;6.82;;;5.47;;
20318;SDS011;10317;47.254;11.314;2022-08-18T01:55:01;6.35;;;5.75;;
20318;SDS011;10317;47.254;11.314;2022-08-18T01:57:27;6.53;;;5.78;;
20318;SDS011;10317;47.254;11.314;2022-08-18T01:59:53;6.22;;;5.22;;
20318;SDS011;10317;47.254;11.314;2022-08-18T02:02:21;6.07;;;5.47;;
20318;SDS011;10317;47.254;11.314;2022-08-18T02:04:51;7.05;;;5.65;;
20318;SDS011;10317;47.254;11.314;2022-08-18T02:07:26;8.20;;;6.00;;
20318;SDS011;10317;47.254;11.314;2022-08-18T02:09:52;5.90;;;5.32;;
20318;SDS011;10317;47.254;11.314;2022-08-18T02:12:18;6.55;;;5.55;;
20318;SDS011;10317;47.254;11.314;2022-08-18T02:14:44;5.70;;;5.20;;
20318;SDS011;10317;47.254;11.314;2022-08-18T02:17:11;5.57;;;4.97;;
20318;SDS011;10317;47.254;11.314;2022-08-18T02:19:42;5.68;;;5.18;;
20318;SDS011;10317;47.254;11.314;2022-08-18T02:22:11;10.52;;;6.15;;
20318;SDS011;10317;47.254;11.314;2022-08-18T02:24:38;5.97;;;5.40;;
20318;SDS011;10317;47.254;11.314;2022-08-18T02:27:05;6.88;;;6.22;;
20318;SDS011;10317;47.254;11.314;2022-08-18T02:29:32;6.57;;;5.93;;
20318;SDS011;10317;47.254;11.314;2022-08-18T02:31:58;6.18;;;5.60;;
20318;SDS011;10317;47.254;11.314;2022-08-18T02:34:24;6.47;;;5.63;;
20318;SDS011;10317;47.254;11.314;2022-08-18T02:36:50;7.60;;;5.60;;
20318;SDS011;10317;47.254;11.314;2022-08-18T02:39:16;6.30;;;5.60;;
20318;SDS011;10317;47.254;11.314;2022-08-18T02:41:41;7.72;;;6.20;;
20318;SDS011;10317;47.254;11.314;2022-08-18T02:44:07;8.73;;;5.78;;
20318;SDS011;10317;47.254;11.314;2022-08-18T02:46:34;10.70;;;5.80;;
20318;SDS011;10317;47.254;11.314;2022-08-18T02:49:00;6.70;;;6.10;;
20318;SDS011;10317;47.254;11.314;2022-08-18T02:51:27;9.35;;;5.55;;
20318;SDS011;10317;47.254;11.314;2022-08-18T02:53:53;6.43;;;5.82;;
20318;SDS011;10317;47.254;11.314;2022-08-18T02:56:23;8.65;;;6.20;;
20318;SDS011;10317;47.254;11.314;2022-08-18T02:58:55;6.90;;;6.20;;
20318;SDS011;10317;47.254;11.314;2022-08-18T03:01:27;10.02;;;6.03;;
20318;SDS011;10317;47.254;11.314;2022-08-18T03:03:55;7.22;;;6.43;;
20318;SDS011;10317;47.254;11.314;2022-08-18T03:06:22;5.72;;;5.22;;
20318;SDS011;10317;47.254;11.314;2022-08-18T03:08:50;6.70;;;6.00;;
20318;SDS011;10317;47.254;11.314;2022-08-18T03:11:17;7.15;;;5.03;;
20318;SDS011;10317;47.254;11.314;2022-08-18T03:13:45;9.23;;;5.97;;
20318;SDS011;10317;47.254;11.314;2022-08-18T03:16:11;7.07;;;6.47;;
20318;SDS011;10317;47.254;11.314;2022-08-18T03:18:40;8.05;;;5.35;;
20318;SDS011;10317;47.254;11.314;2022-08-18T03:21:17;6.40;;;5.80;;
20318;SDS011;10317;47.254;11.314;2022-08-18T03:23:45;6.00;;;5.38;;
20318;SDS011;10317;47.254;11.314;2022-08-18T03:26:12;8.65;;;5.03;;
20318;SDS011;10317;47.254;11.314;2022-08-18T03:28:40;12.75;;;5.90;;
20318;SDS011;10317;47.254;11.314;2022-08-18T03:31:07;6.28;;;5.68;;
20318;SDS011;10317;47.254;11.314;2022-08-18T03:33:35;7.95;;;5.90;;
20318;SDS011;10317;47.254;11.314;2022-08-18T03:36:08;6.47;;;5.80;;
20318;SDS011;10317;47.254;11.314;2022-08-18T03:38:40;7.45;;;6.07;;
20318;SDS011;10317;47.254;11.314;2022-08-18T03:41:07;7.55;;;6.63;;
20318;SDS011;10317;47.254;11.314;2022-08-18T03:43:37;7.10;;;6.18;;
20318;SDS011;10317;47.254;11.314;2022-08-18T03:46:04;7.05;;;6.38;;
20318;SDS011;10317;47.254;11.314;2022-08-18T03:48:33;10.25;;;5.63;;
20318;SDS011;10317;47.254;11.314;2022-08-18T03:51:07;6.35;;;5.75;;
20318;SDS011;10317;47.254;11.314;2022-08-18T03:53:35;7.97;;;5.70;;
20318;SDS011;10317;47.254;11.314;2022-08-18T03:56:05;7.70;;;6.90;;
20318;SDS011;10317;47.254;11.314;2022-08-18T03:58:40;7.47;;;5.45;;
20318;SDS011;10317;47.254;11.314;2022-08-18T04:01:09;6.25;;;5.57;;
20318;SDS011;10317;47.254;11.314;2022-08-18T04:03:37;8.45;;;6.28;;
20318;SDS011;10317;47.254;11.314;2022-08-18T04:06:03;6.80;;;6.10;;
20318;SDS011;10317;47.254;11.314;2022-08-18T04:08:29;6.78;;;6.13;;
20318;SDS011;10317;47.254;11.314;2022-08-18T04:10:55;10.18;;;5.90;;
20318;SDS011;10317;47.254;11.314;2022-08-18T04:13:20;7.43;;;6.75;;
20318;SDS011;10317;47.254;11.314;2022-08-18T04:15:46;7.90;;;6.65;;
20318;SDS011;10317;47.254;11.314;2022-08-18T04:18:12;8.20;;;6.53;;
20318;SDS011;10317;47.254;11.314;2022-08-18T04:20:37;7.72;;;6.20;;
20318;SDS011;10317;47.254;11.314;2022-08-18T04:23:04;6.78;;;6.00;;
20318;SDS011;10317;47.254;11.314;2022-08-18T04:25:30;6.88;;;6.18;;
20318;SDS011;10317;47.254;11.314;2022-08-18T04:27:57;7.80;;;6.13;;
20318;SDS011;10317;47.254;11.314;2022-08-18T04:30:25;7.13;;;6.38;;
20318;SDS011;10317;47.254;11.314;2022-08-18T04:32:53;9.30;;;6.63;;
20318;SDS011;10317;47.254;11.314;2022-08-18T04:35:18;9.82;;;5.75;;
20318;SDS011;10317;47.254;11.314;2022-08-18T04:37:44;10.85;;;6.10;;
20318;SDS011;10317;47.254;11.314;2022-08-18T04:40:10;6.78;;;5.68;;
20318;SDS011;10317;47.254;11.314;2022-08-18T04:42:38;8.38;;;6.07;;
20318;SDS011;10317;47.254;11.314;2022-08-18T04:45:04;9.20;;;6.53;;
20318;SDS011;10317;47.254;11.314;2022-08-18T04:47:30;7.00;;;6.38;;
20318;SDS011;10317;47.254;11.314;2022-08-18T04:49:56;8.07;;;6.05;;
20318;SDS011;10317;47.254;11.314;2022-08-18T04:52:22;6.63;;;6.00;;
20318;SDS011;10317;47.254;11.314;2022-08-18T04:55:06;8.15;;;7.43;;
20318;SDS011;10317;47.254;11.314;2022-08-18T04:57:33;11.73;;;6.65;;
20318;SDS011;10317;47.254;11.314;2022-08-18T04:59:59;6.90;;;6.28;;
20318;SDS011;10317;47.254;11.314;2022-08-18T05:02:25;8.25;;;6.93;;
20318;SDS011;10317;47.254;11.314;2022-08-18T05:04:51;7.53;;;6.53;;
20318;SDS011;10317;47.254;11.314;2022-08-18T05:07:18;7.97;;;6.38;;
20318;SDS011;10317;47.254;11.314;2022-08-18T05:09:46;6.38;;;5.75;;
20318;SDS011;10317;47.254;11.314;2022-08-18T05:12:12;9.30;;;6.93;;
20318;SDS011;10317;47.254;11.314;2022-08-18T05:14:40;7.65;;;6.95;;
20318;SDS011;10317;47.254;11.314;2022-08-18T05:17:08;7.68;;;6.88;;
20318;SDS011;10317;47.254;11.314;2022-08-18T05:19:35;8.55;;;7.38;;
20318;SDS011;10317;47.254;11.314;2022-08-18T05:22:00;10.02;;;6.53;;
20318;SDS011;10317;47.254;11.314;2022-08-18T05:24:28;6.90;;;6.18;;
20318;SDS011;10317;47.254;11.314;2022-08-18T05:26:54;6.70;;;6.10;;
20318;SDS011;10317;47.254;11.314;2022-08-18T05:29:20;9.15;;;6.35;;
20318;SDS011;10317;47.254;11.314;2022-08-18T05:31:47;8.75;;;6.72;;
20318;SDS011;10317;47.254;11.314;2022-08-18T05:34:15;7.25;;;6.55;;
20318;SDS011;10317;47.254;11.314;2022-08-18T05:44:39;8.45;;;7.30;;
20318;SDS011;10317;47.254;11.314;2022-08-18T05:47:12;8.90;;;6.35;;
20318;SDS011;10317;47.254;11.314;2022-08-18T05:49:42;8.05;;;6.53;;
20318;SDS011;10317;47.254;11.314;2022-08-18T05:52:14;9.68;;;8.02;;
20318;SDS011;10317;47.254;11.314;2022-08-18T05:54:45;6.93;;;6.22;;
20318;SDS011;10317;47.254;11.314;2022-08-18T05:57:37;11.60;;;7.95;;
20318;SDS011;10317;47.254;11.314;2022-08-18T06:00:07;10.55;;;7.53;;
20318;SDS011;10317;47.254;11.314;2022-08-18T06:02:43;9.23;;;6.72;;
20318;SDS011;10317;47.254;11.314;2022-08-18T06:08:07;6.63;;;6.03;;
20318;SDS011;10317;47.254;11.314;2022-08-18T06:10:34;8.75;;;6.82;;
20318;SDS011;10317;47.254;11.314;2022-08-18T06:13:01;10.93;;;7.35;;
20318;SDS011;10317;47.254;11.314;2022-08-18T06:15:47;13.05;;;9.00;;
20318;SDS011;10317;47.254;11.314;2022-08-18T06:32:24;10.70;;;8.15;;
20318;SDS011;10317;47.254;11.314;2022-08-18T06:40:42;11.60;;;7.75;;
20318;SDS011;10317;47.254;11.314;2022-08-18T06:43:12;16.60;;;9.20;;
20318;SDS011;10317;47.254;11.314;2022-08-18T06:45:43;8.45;;;7.53;;
20318;SDS011;10317;47.254;11.314;2022-08-18T06:48:33;9.02;;;7.45;;
20318;SDS011;10317;47.254;11.314;2022-08-18T06:51:06;9.95;;;7.93;;
20318;SDS011;10317;47.254;11.314;2022-08-18T06:56:44;8.60;;;7.35;;
20318;SDS011;10317;47.254;11.314;2022-08-18T06:59:13;11.73;;;7.93;;
20318;SDS011;10317;47.254;11.314;2022-08-18T07:01:38;8.75;;;7.60;;
20318;SDS011;10317;47.254;11.314;2022-08-18T07:04:04;9.35;;;7.20;;
20318;SDS011;10317;47.254;11.314;2022-08-18T07:06:30;10.50;;;7.68;;
20318;SDS011;10317;47.254;11.314;2022-08-18T07:12:06;14.75;;;8.35;;
20318;SDS011;10317;47.254;11.314;2022-08-18T07:14:44;11.10;;;7.55;;
20318;SDS011;10317;47.254;11.314;2022-08-18T07:17:13;8.52;;;7.70;;
20318;SDS011;10317;47.254;11.314;2022-08-18T07:20:22;10.18;;;9.10;;
20318;SDS011;10317;47.254;11.314;2022-08-18T07:22:50;10.40;;;8.65;;
20318;SDS011;10317;47.254;11.314;2022-08-18T07:25:22;13.48;;;9.10;;
20318;SDS011;10317;47.254;11.314;2022-08-18T07:31:08;12.55;;;7.90;;
20318;SDS011;10317;47.254;11.314;2022-08-18T07:33:39;12.98;;;10.68;;
20318;SDS011;10317;47.254;11.314;2022-08-18T07:36:07;11.85;;;7.95;;
20318;SDS011;10317;47.254;11.314;2022-08-18T07:41:07;9.65;;;7.93;;
20318;SDS011;10317;47.254;11.314;2022-08-18T07:46:22;8.73;;;7.57;;
20318;SDS011;10317;47.254;11.314;2022-08-18T07:48:56;8.23;;;7.22;;
20318;SDS011;10317;47.254;11.314;2022-08-18T07:51:38;8.32;;;7.53;;
20318;SDS011;10317;47.254;11.314;2022-08-18T07:57:05;9.60;;;7.70;;
20318;SDS011;10317;47.254;11.314;2022-08-18T07:59:56;8.75;;;7.65;;
20318;SDS011;10317;47.254;11.314;2022-08-18T08:02:39;7.68;;;6.97;;
20318;SDS011;10317;47.254;11.314;2022-08-18T08:08:24;8.52;;;7.68;;
20318;SDS011;10317;47.254;11.314;2022-08-18T08:11:02;8.60;;;7.40;;
20318;SDS011;10317;47.254;11.314;2022-08-18T08:13:59;10.75;;;8.32;;
20318;SDS011;10317;47.254;11.314;2022-08-18T08:16:44;11.68;;;7.30;;
20318;SDS011;10317;47.254;11.314;2022-08-18T08:22:15;7.60;;;6.88;;
20318;SDS011;10317;47.254;11.314;2022-08-18T08:24:54;10.55;;;7.57;;
20318;SDS011;10317;47.254;11.314;2022-08-18T08:30:45;9.57;;;7.18;;
20318;SDS011;10317;47.254;11.314;2022-08-18T08:33:35;8.13;;;7.32;;
20318;SDS011;10317;47.254;11.314;2022-08-18T08:36:10;9.98;;;6.88;;
20318;SDS011;10317;47.254;11.314;2022-08-18T08:38:46;7.40;;;6.60;;
20318;SDS011;10317;47.254;11.314;2022-08-18T08:41:19;7.75;;;6.97;;
20318;SDS011;10317;47.254;11.314;2022-08-18T08:44:01;7.93;;;6.57;;
20318;SDS011;10317;47.254;11.314;2022-08-18T08:46:53;7.93;;;6.40;;
20318;SDS011;10317;47.254;11.314;2022-08-18T08:49:53;7.90;;;7.15;;
20318;SDS011;10317;47.254;11.314;2022-08-18T08:52:37;10.52;;;6.90;;
20318;SDS011;10317;47.254;11.314;2022-08-18T08:55:34;10.23;;;7.00;;
20318;SDS011;10317;47.254;11.314;2022-08-18T09:00:42;9.32;;;7.22;;
20318;SDS011;10317;47.254;11.314;2022-08-18T09:11:31;7.47;;;6.78;;
20318;SDS011;10317;47.254;11.314;2022-08-18T09:23:10;8.23;;;6.70;;
20318;SDS011;10317;47.254;11.314;2022-08-18T09:25:50;8.70;;;6.45;;
20318;SDS011;10317;47.254;11.314;2022-08-18T09:38:37;8.27;;;6.25;;
20318;SDS011;10317;47.254;11.314;2022-08-18T09:41:32;10.13;;;7.15;;
20318;SDS011;10317;47.254;11.314;2022-08-18T09:44:10;8.05;;;6.15;;
20318;SDS011;10317;47.254;11.314;2022-08-18T09:52:00;7.47;;;6.60;;
20318;SDS011;10317;47.254;11.314;2022-08-18T09:54:52;7.68;;;6.32;;
20318;SDS011;10317;47.254;11.314;2022-08-18T09:57:26;6.78;;;6.18;;
20318;SDS011;10317;47.254;11.314;2022-08-18T10:15:37;6.30;;;4.57;;
20318;SDS011;10317;47.254;11.314;2022-08-18T10:18:23;5.03;;;4.53;;
20318;SDS011;10317;47.254;11.314;2022-08-18T10:21:19;7.60;;;3.55;;
20318;SDS011;10317;47.254;11.314;2022-08-18T10:31:27;4.13;;;2.10;;
20318;SDS011;10317;47.254;11.314;2022-08-18T10:39:22;2.40;;;1.38;;
20318;SDS011;10317;47.254;11.314;2022-08-18T10:41:57;3.45;;;1.60;;
20318;SDS011;10317;47.254;11.314;2022-08-18T10:44:30;1.77;;;1.67;;
20318;SDS011;10317;47.254;11.314;2022-08-18T10:47:00;4.55;;;1.58;;
20318;SDS011;10317;47.254;11.314;2022-08-18T10:49:28;2.97;;;1.30;;
20318;SDS011;10317;47.254;11.314;2022-08-18T10:57:31;3.05;;;1.10;;
20318;SDS011;10317;47.254;11.314;2022-08-18T11:00:19;2.30;;;1.35;;
20318;SDS011;10317;47.254;11.314;2022-08-18T11:05:59;2.72;;;1.38;;
20318;SDS011;10317;47.254;11.314;2022-08-18T11:08:30;1.40;;;0.95;;
20318;SDS011;10317;47.254;11.314;2022-08-18T11:11:06;2.38;;;1.33;;
20318;SDS011;10317;47.254;11.314;2022-08-18T11:18:50;1.55;;;1.02;;
20318;SDS011;10317;47.254;11.314;2022-08-18T11:21:33;3.30;;;1.02;;
20318;SDS011;10317;47.254;11.314;2022-08-18T11:26:35;1.20;;;1.10;;
20318;SDS011;10317;47.254;11.314;2022-08-18T11:31:48;2.47;;;1.30;;
20318;SDS011;10317;47.254;11.314;2022-08-18T11:34:18;1.10;;;1.00;;
20318;SDS011;10317;47.254;11.314;2022-08-18T11:37:04;2.35;;;1.30;;
20318;SDS011;10317;47.254;11.314;2022-08-18T11:39:32;4.97;;;2.05;;
20318;SDS011;10317;47.254;11.314;2022-08-18T11:42:06;2.22;;;1.42;;
20318;SDS011;10317;47.254;11.314;2022-08-18T11:44:33;2.28;;;1.63;;
20318;SDS011;10317;47.254;11.314;2022-08-18T11:47:12;4.38;;;1.45;;
20318;SDS011;10317;47.254;11.314;2022-08-18T11:50:05;1.73;;;1.63;;
20318;SDS011;10317;47.254;11.314;2022-08-18T11:52:49;2.95;;;1.30;;
20318;SDS011;10317;47.254;11.314;2022-08-18T11:55:21;3.80;;;1.45;;
20318;SDS011;10317;47.254;11.314;2022-08-18T11:57:58;4.78;;;2.70;;
20318;SDS011;10317;47.254;11.314;2022-08-18T12:03:15;5.15;;;4.35;;
20318;SDS011;10317;47.254;11.314;2022-08-18T12:05:53;11.38;;;5.38;;
20318;SDS011;10317;47.254;11.314;2022-08-18T12:08:25;6.82;;;5.00;;
20318;SDS011;10317;47.254;11.314;2022-08-18T12:13:41;6.65;;;5.30;;
20318;SDS011;10317;47.254;11.314;2022-08-18T12:16:55;9.07;;;5.90;;
20318;SDS011;10317;47.254;11.314;2022-08-18T12:18:56;6.47;;;4.82;;
20318;SDS011;10317;47.254;11.314;2022-08-18T12:21:23;5.97;;;5.40;;
20318;SDS011;10317;47.254;11.314;2022-08-18T12:23:48;8.35;;;6.18;;
20318;SDS011;10317;47.254;11.314;2022-08-18T12:26:14;8.43;;;6.03;;
20318;SDS011;10317;47.254;11.314;2022-08-18T12:28:40;8.10;;;6.18;;
20318;SDS011;10317;47.254;11.314;2022-08-18T12:31:06;10.10;;;6.25;;
20318;SDS011;10317;47.254;11.314;2022-08-18T12:33:35;9.68;;;6.63;;
20318;SDS011;10317;47.254;11.314;2022-08-18T12:36:03;11.55;;;7.63;;
20318;SDS011;10317;47.254;11.314;2022-08-18T12:38:30;13.43;;;6.05;;
20318;SDS011;10317;47.254;11.314;2022-08-18T12:40:57;5.70;;;3.30;;
20318;SDS011;10317;47.254;11.314;2022-08-18T12:43:23;7.78;;;3.20;;
20318;SDS011;10317;47.254;11.314;2022-08-18T12:45:49;4.18;;;2.08;;
20318;SDS011;10317;47.254;11.314;2022-08-18T12:48:15;5.95;;;1.90;;
20318;SDS011;10317;47.254;11.314;2022-08-18T12:50:42;3.85;;;1.80;;
20318;SDS011;10317;47.254;11.314;2022-08-18T12:53:09;4.68;;;1.88;;
20318;SDS011;10317;47.254;11.314;2022-08-18T12:55:40;5.38;;;2.17;;
20318;SDS011;10317;47.254;11.314;2022-08-18T12:58:07;2.00;;;1.23;;
20318;SDS011;10317;47.254;11.314;2022-08-18T13:00:33;1.70;;;1.60;;
20318;SDS011;10317;47.254;11.314;2022-08-18T13:02:59;1.60;;;1.50;;
20318;SDS011;10317;47.254;11.314;2022-08-18T13:05:25;1.70;;;1.60;;
20318;SDS011;10317;47.254;11.314;2022-08-18T13:07:52;5.18;;;1.70;;
20318;SDS011;10317;47.254;11.314;2022-08-18T13:10:28;4.45;;;1.70;;
20318;SDS011;10317;47.254;11.314;2022-08-18T13:12:54;2.58;;;1.63;;
20318;SDS011;10317;47.254;11.314;2022-08-18T13:15:19;1.95;;;1.50;;
20318;SDS011;10317;47.254;11.314;2022-08-18T13:17:46;2.88;;;1.58;;
20318;SDS011;10317;47.254;11.314;2022-08-18T13:20:13;2.97;;;1.65;;
20318;SDS011;10317;47.254;11.314;2022-08-18T13:22:40;3.03;;;2.20;;
20318;SDS011;10317;47.254;11.314;2022-08-18T13:25:08;2.80;;;1.90;;
20318;SDS011;10317;47.254;11.314;2022-08-18T13:27:35;3.28;;;1.65;;
20318;SDS011;10317;47.254;11.314;2022-08-18T13:30:03;2.17;;;1.52;;
20318;SDS011;10317;47.254;11.314;2022-08-18T13:32:33;2.25;;;1.38;;
20318;SDS011;10317;47.254;11.314;2022-08-18T13:34:59;3.92;;;1.90;;
20318;SDS011;10317;47.254;11.314;2022-08-18T13:37:25;5.70;;;1.75;;
20318;SDS011;10317;47.254;11.314;2022-08-18T13:39:55;2.38;;;1.88;;
20318;SDS011;10317;47.254;11.314;2022-08-18T13:42:22;4.43;;;2.08;;
20318;SDS011;10317;47.254;11.314;2022-08-18T13:44:48;4.20;;;1.70;;
20318;SDS011;10317;47.254;11.314;2022-08-18T13:47:13;8.52;;;1.85;;
20318;SDS011;10317;47.254;11.314;2022-08-18T13:49:39;3.20;;;1.70;;
20318;SDS011;10317;47.254;11.314;2022-08-18T13:52:07;3.22;;;1.48;;
20318;SDS011;10317;47.254;11.314;2022-08-18T13:54:36;1.60;;;1.50;;
20318;SDS011;10317;47.254;11.314;2022-08-18T13:57:04;6.05;;;2.00;;
20318;SDS011;10317;47.254;11.314;2022-08-18T13:59:30;3.13;;;2.00;;
20318;SDS011;10317;47.254;11.314;2022-08-18T14:01:57;4.47;;;1.90;;
20318;SDS011;10317;47.254;11.314;2022-08-18T14:04:24;2.60;;;2.00;;
20318;SDS011;10317;47.254;11.314;2022-08-18T14:06:51;2.75;;;2.05;;
20318;SDS011;10317;47.254;11.314;2022-08-18T14:09:18;3.08;;;2.15;;
20318;SDS011;10317;47.254;11.314;2022-08-18T14:11:44;2.88;;;2.60;;
20318;SDS011;10317;47.254;11.314;2022-08-18T14:14:11;5.22;;;2.35;;
20318;SDS011;10317;47.254;11.314;2022-08-18T14:16:38;3.05;;;2.17;;
20318;SDS011;10317;47.254;11.314;2022-08-18T14:19:03;3.70;;;2.25;;
20318;SDS011;10317;47.254;11.314;2022-08-18T14:21:49;4.60;;;2.53;;
20318;SDS011;10317;47.254;11.314;2022-08-18T14:24:35;2.25;;;1.60;;
20318;SDS011;10317;47.254;11.314;2022-08-18T14:27:28;2.97;;;2.60;;
20318;SDS011;10317;47.254;11.314;2022-08-18T14:29:58;5.35;;;2.65;;
20318;SDS011;10317;47.254;11.314;2022-08-18T14:32:25;3.58;;;2.35;;
20318;SDS011;10317;47.254;11.314;2022-08-18T14:34:54;5.53;;;2.38;;
20318;SDS011;10317;47.254;11.314;2022-08-18T14:37:25;4.18;;;2.88;;
20318;SDS011;10317;47.254;11.314;2022-08-18T14:39:51;3.38;;;2.38;;
20318;SDS011;10317;47.254;11.314;2022-08-18T14:42:17;4.30;;;2.50;;
20318;SDS011;10317;47.254;11.314;2022-08-18T14:44:45;2.78;;;2.03;;
20318;SDS011;10317;47.254;11.314;2022-08-18T14:47:11;3.55;;;2.30;;
20318;SDS011;10317;47.254;11.314;2022-08-18T14:49:37;2.42;;;2.05;;
20318;SDS011;10317;47.254;11.314;2022-08-18T14:52:04;4.43;;;2.13;;
20318;SDS011;10317;47.254;11.314;2022-08-18T14:54:31;2.70;;;1.77;;
20318;SDS011;10317;47.254;11.314;2022-08-18T14:56:58;3.40;;;1.65;;
20318;SDS011;10317;47.254;11.314;2022-08-18T14:59:27;3.20;;;2.13;;
20318;SDS011;10317;47.254;11.314;2022-08-18T15:01:55;1.80;;;1.70;;
20318;SDS011;10317;47.254;11.314;2022-08-18T15:04:21;2.97;;;2.05;;
20318;SDS011;10317;47.254;11.314;2022-08-18T15:06:47;2.47;;;1.55;;
20318;SDS011;10317;47.254;11.314;2022-08-18T15:09:14;2.35;;;1.90;;
20318;SDS011;10317;47.254;11.314;2022-08-18T15:11:40;2.65;;;1.85;;
20318;SDS011;10317;47.254;11.314;2022-08-18T15:14:05;2.55;;;2.03;;
20318;SDS011;10317;47.254;11.314;2022-08-18T15:16:31;2.92;;;1.60;;
20318;SDS011;10317;47.254;11.314;2022-08-18T15:19:00;2.17;;;1.98;;
20318;SDS011;10317;47.254;11.314;2022-08-18T15:21:26;1.77;;;1.25;;
20318;SDS011;10317;47.254;11.314;2022-08-18T15:24:11;3.30;;;1.20;;
20318;SDS011;10317;47.254;11.314;2022-08-18T15:26:56;1.40;;;1.30;;
20318;SDS011;10317;47.254;11.314;2022-08-18T15:29:22;1.75;;;1.50;;
20318;SDS011;10317;47.254;11.314;2022-08-18T15:31:48;3.45;;;1.67;;
20318;SDS011;10317;47.254;11.314;2022-08-18T15:34:14;3.00;;;1.55;;
20318;SDS011;10317;47.254;11.314;2022-08-18T15:36:41;3.65;;;1.50;;
20318;SDS011;10317;47.254;11.314;2022-08-18T15:39:07;2.40;;;1.38;;
20318;SDS011;10317;47.254;11.314;2022-08-18T15:44:00;1.60;;;1.00;;
20318;SDS011;10317;47.254;11.314;2022-08-18T15:46:27;1.42;;;0.90;;
20318;SDS011;10317;47.254;11.314;2022-08-18T15:48:56;2.08;;;1.05;;
20318;SDS011;10317;47.254;11.314;2022-08-18T15:51:22;1.63;;;1.23;;
20318;SDS011;10317;47.254;11.314;2022-08-18T15:53:48;0.93;;;0.93;;
20318;SDS011;10317;47.254;11.314;2022-08-18T15:56:15;1.30;;;1.30;;
20318;SDS011;10317;47.254;11.314;2022-08-18T15:58:46;1.80;;;1.20;;
20318;SDS011;10317;47.254;11.314;2022-08-18T16:01:13;2.35;;;1.50;;
20318;SDS011;10317;47.254;11.314;2022-08-18T16:03:39;2.35;;;0.93;;
20318;SDS011;10317;47.254;11.314;2022-08-18T16:06:06;1.20;;;1.10;;
20318;SDS011;10317;47.254;11.314;2022-08-18T16:08:36;14.27;;;2.20;;
20318;SDS011;10317;47.254;11.314;2022-08-18T16:11:05;1.83;;;1.33;;
20318;SDS011;10317;47.254;11.314;2022-08-18T16:13:33;2.10;;;2.00;;
20318;SDS011;10317;47.254;11.314;2022-08-18T16:15:58;2.17;;;1.90;;
20318;SDS011;10317;47.254;11.314;2022-08-18T16:18:25;3.35;;;2.40;;
20318;SDS011;10317;47.254;11.314;2022-08-18T16:20:51;2.50;;;2.30;;
20318;SDS011;10317;47.254;11.314;2022-08-18T16:23:17;1.88;;;1.83;;
20318;SDS011;10317;47.254;11.314;2022-08-18T16:25:42;4.85;;;2.33;;
20318;SDS011;10317;47.254;11.314;2022-08-18T16:28:09;8.50;;;1.88;;
20318;SDS011;10317;47.254;11.314;2022-08-18T16:30:37;2.25;;;2.05;;
20318;SDS011;10317;47.254;11.314;2022-08-18T16:33:04;4.60;;;2.45;;
20318;SDS011;10317;47.254;11.314;2022-08-18T16:35:31;4.65;;;2.45;;
20318;SDS011;10317;47.254;11.314;2022-08-18T16:38:03;2.88;;;2.33;;
20318;SDS011;10317;47.254;11.314;2022-08-18T16:40:30;4.68;;;3.00;;
20318;SDS011;10317;47.254;11.314;2022-08-18T16:42:56;5.40;;;2.50;;
20318;SDS011;10317;47.254;11.314;2022-08-18T16:45:22;4.55;;;2.30;;
20318;SDS011;10317;47.254;11.314;2022-08-18T16:47:49;3.00;;;2.22;;
20318;SDS011;10317;47.254;11.314;2022-08-18T16:50:15;3.88;;;2.45;;
20318;SDS011;10317;47.254;11.314;2022-08-18T16:52:44;3.45;;;2.00;;
20318;SDS011;10317;47.254;11.314;2022-08-18T16:55:10;3.08;;;2.00;;
20318;SDS011;10317;47.254;11.314;2022-08-18T16:57:37;6.18;;;2.20;;
20318;SDS011;10317;47.254;11.314;2022-08-18T17:00:25;2.10;;;2.00;;
20318;SDS011;10317;47.254;11.314;2022-08-18T17:03:10;2.55;;;2.38;;
20318;SDS011;10317;47.254;11.314;2022-08-18T17:06:02;4.30;;;2.50;;
20318;SDS011;10317;47.254;11.314;2022-08-18T17:08:30;2.15;;;2.05;;
20318;SDS011;10317;47.254;11.314;2022-08-18T17:11:00;6.65;;;2.80;;
20318;SDS011;10317;47.254;11.314;2022-08-18T17:13:26;5.32;;;2.40;;
20318;SDS011;10317;47.254;11.314;2022-08-18T17:15:53;5.47;;;3.00;;
20318;SDS011;10317;47.254;11.314;2022-08-18T17:18:19;2.35;;;2.22;;
20318;SDS011;10317;47.254;11.314;2022-08-18T17:20:46;4.40;;;2.10;;
20318;SDS011;10317;47.254;11.314;2022-08-18T17:23:11;4.53;;;2.50;;
20318;SDS011;10317;47.254;11.314;2022-08-18T17:25:38;3.85;;;2.10;;